sensor_id;sensor_type;location;lat;lon;timestamp;P1;durP1;ratioP1;P2;durP2;ratioP2
12663;SDS011;6396;58.490;15.528;2023-07-09T00:01:41;4.20;;;3.70;;
12663;SDS011;6396;58.490;15.528;2023-07-09T00:04:10;3.60;;;3.30;;
12663;SDS011;6396;58.490;15.528;2023-07-09T00:06:37;4.33;;;3.23;;
12663;SDS011;6396;58.490;15.528;2023-07-09T00:09:06;3.60;;;3.30;;
12663;SDS011;6396;58.490;15.528;2023-07-09T00:11:38;3.50;;;3.20;;
12663;SDS011;6396;58.490;15.528;2023-07-09T00:14:05;4.57;;;3.60;;
12663;SDS011;6396;58.490;15.528;2023-07-09T00:16:32;4.13;;;3.53;;
12663;SDS011;6396;58.490;15.528;2023-07-09T00:19:00;4.30;;;3.47;;
12663;SDS011;6396;58.490;15.528;2023-07-09T00:24:26;4.27;;;3.70;;
12663;SDS011;6396;58.490;15.528;2023-07-09T00:26:54;4.10;;;3.80;;
12663;SDS011;6396;58.490;15.528;2023-07-09T00:29:24;4.73;;;4.30;;
12663;SDS011;6396;58.490;15.528;2023-07-09T00:32:08;4.60;;;4.00;;
12663;SDS011;6396;58.490;15.528;2023-07-09T00:34:52;4.30;;;3.90;;
12663;SDS011;6396;58.490;15.528;2023-07-09T00:37:23;4.63;;;4.23;;
12663;SDS011;6396;58.490;15.528;2023-07-09T00:39:52;4.77;;;4.37;;
12663;SDS011;6396;58.490;15.528;2023-07-09T00:42:21;5.07;;;4.50;;
12663;SDS011;6396;58.490;15.528;2023-07-09T00:44:50;5.43;;;4.40;;
12663;SDS011;6396;58.490;15.528;2023-07-09T00:47:22;5.43;;;4.87;;
12663;SDS011;6396;58.490;15.528;2023-07-09T00:50:03;5.63;;;4.43;;
12663;SDS011;6396;58.490;15.528;2023-07-09T00:52:37;4.97;;;4.57;;
12663;SDS011;6396;58.490;15.528;2023-07-09T00:55:11;4.93;;;4.40;;
12663;SDS011;6396;58.490;15.528;2023-07-09T00:57:41;4.30;;;4.00;;
12663;SDS011;6396;58.490;15.528;2023-07-09T01:00:21;5.10;;;4.60;;
12663;SDS011;6396;58.490;15.528;2023-07-09T01:02:53;4.93;;;4.43;;
12663;SDS011;6396;58.490;15.528;2023-07-09T01:05:20;4.83;;;4.40;;
12663;SDS011;6396;58.490;15.528;2023-07-09T01:07:49;5.50;;;4.33;;
12663;SDS011;6396;58.490;15.528;2023-07-09T01:10:16;4.43;;;4.03;;
12663;SDS011;6396;58.490;15.528;2023-07-09T01:12:45;4.93;;;3.90;;
12663;SDS011;6396;58.490;15.528;2023-07-09T01:15:14;4.30;;;3.80;;
12663;SDS011;6396;58.490;15.528;2023-07-09T01:17:41;4.23;;;3.83;;
12663;SDS011;6396;58.490;15.528;2023-07-09T01:20:14;4.10;;;3.77;;
12663;SDS011;6396;58.490;15.528;2023-07-09T01:22:47;3.73;;;3.43;;
12663;SDS011;6396;58.490;15.528;2023-07-09T01:25:16;4.37;;;3.97;;
12663;SDS011;6396;58.490;15.528;2023-07-09T01:27:45;4.43;;;4.00;;
12663;SDS011;6396;58.490;15.528;2023-07-09T01:30:13;3.93;;;3.43;;
12663;SDS011;6396;58.490;15.528;2023-07-09T01:32:44;4.47;;;3.23;;
12663;SDS011;6396;58.490;15.528;2023-07-09T01:35:12;3.80;;;3.47;;
12663;SDS011;6396;58.490;15.528;2023-07-09T01:37:40;3.60;;;3.30;;
12663;SDS011;6396;58.490;15.528;2023-07-09T01:40:10;5.07;;;3.30;;
12663;SDS011;6396;58.490;15.528;2023-07-09T01:42:39;4.20;;;3.80;;
12663;SDS011;6396;58.490;15.528;2023-07-09T01:45:08;3.83;;;3.43;;
12663;SDS011;6396;58.490;15.528;2023-07-09T01:47:36;4.87;;;3.50;;
12663;SDS011;6396;58.490;15.528;2023-07-09T01:50:04;3.87;;;3.57;;
12663;SDS011;6396;58.490;15.528;2023-07-09T01:52:31;5.63;;;3.60;;
12663;SDS011;6396;58.490;15.528;2023-07-09T01:54:59;4.83;;;3.57;;
12663;SDS011;6396;58.490;15.528;2023-07-09T01:57:28;3.97;;;3.67;;
12663;SDS011;6396;58.490;15.528;2023-07-09T01:59:58;3.90;;;3.50;;
12663;SDS011;6396;58.490;15.528;2023-07-09T02:02:27;3.73;;;3.40;;
12663;SDS011;6396;58.490;15.528;2023-07-09T02:04:55;3.60;;;3.30;;
12663;SDS011;6396;58.490;15.528;2023-07-09T02:07:23;3.83;;;3.17;;
12663;SDS011;6396;58.490;15.528;2023-07-09T02:09:51;4.20;;;3.50;;
12663;SDS011;6396;58.490;15.528;2023-07-09T02:12:18;4.07;;;3.30;;
12663;SDS011;6396;58.490;15.528;2023-07-09T02:14:47;3.87;;;3.27;;
12663;SDS011;6396;58.490;15.528;2023-07-09T02:17:14;4.73;;;3.50;;
12663;SDS011;6396;58.490;15.528;2023-07-09T02:19:42;4.83;;;3.50;;
12663;SDS011;6396;58.490;15.528;2023-07-09T02:22:09;3.33;;;3.03;;
12663;SDS011;6396;58.490;15.528;2023-07-09T02:24:37;4.50;;;3.40;;
12663;SDS011;6396;58.490;15.528;2023-07-09T02:27:05;3.97;;;3.40;;
12663;SDS011;6396;58.490;15.528;2023-07-09T02:29:34;3.57;;;3.27;;
12663;SDS011;6396;58.490;15.528;2023-07-09T02:32:03;3.77;;;3.37;;
12663;SDS011;6396;58.490;15.528;2023-07-09T02:34:30;3.83;;;3.10;;
12663;SDS011;6396;58.490;15.528;2023-07-09T02:36:58;5.03;;;3.37;;
12663;SDS011;6396;58.490;15.528;2023-07-09T02:39:26;4.03;;;3.33;;
12663;SDS011;6396;58.490;15.528;2023-07-09T02:41:52;3.17;;;2.87;;
12663;SDS011;6396;58.490;15.528;2023-07-09T02:44:19;3.47;;;3.17;;
12663;SDS011;6396;58.490;15.528;2023-07-09T02:46:46;3.87;;;3.43;;
12663;SDS011;6396;58.490;15.528;2023-07-09T02:49:15;3.63;;;3.33;;
12663;SDS011;6396;58.490;15.528;2023-07-09T02:51:42;4.13;;;3.00;;
12663;SDS011;6396;58.490;15.528;2023-07-09T02:54:09;4.57;;;3.27;;
12663;SDS011;6396;58.490;15.528;2023-07-09T02:56:36;3.40;;;3.10;;
12663;SDS011;6396;58.490;15.528;2023-07-09T02:59:03;3.40;;;3.10;;
12663;SDS011;6396;58.490;15.528;2023-07-09T03:01:31;3.93;;;3.03;;
12663;SDS011;6396;58.490;15.528;2023-07-09T03:03:59;3.57;;;3.27;;
12663;SDS011;6396;58.490;15.528;2023-07-09T03:06:30;3.60;;;3.30;;
12663;SDS011;6396;58.490;15.528;2023-07-09T03:08:59;3.60;;;3.30;;
12663;SDS011;6396;58.490;15.528;2023-07-09T03:11:28;3.23;;;2.80;;
12663;SDS011;6396;58.490;15.528;2023-07-09T03:13:56;3.67;;;3.27;;
12663;SDS011;6396;58.490;15.528;2023-07-09T03:16:23;3.20;;;3.00;;
12663;SDS011;6396;58.490;15.528;2023-07-09T03:18:52;3.77;;;3.00;;
12663;SDS011;6396;58.490;15.528;2023-07-09T03:21:19;3.87;;;3.50;;
12663;SDS011;6396;58.490;15.528;2023-07-09T03:23:48;4.57;;;3.60;;
12663;SDS011;6396;58.490;15.528;2023-07-09T03:26:14;4.93;;;3.00;;
12663;SDS011;6396;58.490;15.528;2023-07-09T03:28:42;3.80;;;3.40;;
12663;SDS011;6396;58.490;15.528;2023-07-09T03:31:09;5.00;;;3.53;;
12663;SDS011;6396;58.490;15.528;2023-07-09T03:33:36;3.70;;;3.40;;
12663;SDS011;6396;58.490;15.528;2023-07-09T03:36:03;4.17;;;3.30;;
12663;SDS011;6396;58.490;15.528;2023-07-09T03:38:31;3.60;;;3.30;;
12663;SDS011;6396;58.490;15.528;2023-07-09T03:40:59;4.00;;;3.60;;
12663;SDS011;6396;58.490;15.528;2023-07-09T03:43:26;3.80;;;3.50;;
12663;SDS011;6396;58.490;15.528;2023-07-09T03:45:53;3.20;;;2.90;;
12663;SDS011;6396;58.490;15.528;2023-07-09T03:48:20;4.30;;;3.43;;
12663;SDS011;6396;58.490;15.528;2023-07-09T03:50:47;4.20;;;3.80;;
12663;SDS011;6396;58.490;15.528;2023-07-09T03:53:15;4.17;;;3.77;;
12663;SDS011;6396;58.490;15.528;2023-07-09T03:55:42;5.03;;;3.37;;
12663;SDS011;6396;58.490;15.528;2023-07-09T03:58:12;4.83;;;3.50;;
12663;SDS011;6396;58.490;15.528;2023-07-09T04:00:39;3.60;;;3.30;;
12663;SDS011;6396;58.490;15.528;2023-07-09T04:03:06;4.07;;;3.77;;
12663;SDS011;6396;58.490;15.528;2023-07-09T04:05:35;4.10;;;3.40;;
12663;SDS011;6396;58.490;15.528;2023-07-09T04:08:02;4.03;;;3.47;;
12663;SDS011;6396;58.490;15.528;2023-07-09T04:10:29;3.50;;;3.20;;
12663;SDS011;6396;58.490;15.528;2023-07-09T04:12:55;3.30;;;3.00;;
12663;SDS011;6396;58.490;15.528;2023-07-09T04:15:24;4.83;;;3.30;;
12663;SDS011;6396;58.490;15.528;2023-07-09T04:17:50;4.30;;;3.10;;
12663;SDS011;6396;58.490;15.528;2023-07-09T04:20:17;4.30;;;3.70;;
12663;SDS011;6396;58.490;15.528;2023-07-09T04:22:44;4.23;;;3.83;;
12663;SDS011;6396;58.490;15.528;2023-07-09T04:25:12;3.80;;;3.43;;
12663;SDS011;6396;58.490;15.528;2023-07-09T04:27:38;4.23;;;3.20;;
12663;SDS011;6396;58.490;15.528;2023-07-09T04:30:07;3.90;;;3.50;;
12663;SDS011;6396;58.490;15.528;2023-07-09T04:32:38;4.17;;;3.70;;
12663;SDS011;6396;58.490;15.528;2023-07-09T04:35:05;3.50;;;3.20;;
12663;SDS011;6396;58.490;15.528;2023-07-09T04:37:32;5.07;;;3.50;;
12663;SDS011;6396;58.490;15.528;2023-07-09T04:39:59;4.57;;;3.53;;
12663;SDS011;6396;58.490;15.528;2023-07-09T04:42:28;4.63;;;3.63;;
12663;SDS011;6396;58.490;15.528;2023-07-09T04:44:54;4.67;;;3.60;;
12663;SDS011;6396;58.490;15.528;2023-07-09T04:47:21;4.63;;;3.67;;
12663;SDS011;6396;58.490;15.528;2023-07-09T04:49:49;4.00;;;3.60;;
12663;SDS011;6396;58.490;15.528;2023-07-09T04:52:16;4.03;;;3.43;;
12663;SDS011;6396;58.490;15.528;2023-07-09T04:54:43;5.50;;;3.50;;
12663;SDS011;6396;58.490;15.528;2023-07-09T04:57:10;4.97;;;3.80;;
12663;SDS011;6396;58.490;15.528;2023-07-09T04:59:37;5.03;;;3.73;;
12663;SDS011;6396;58.490;15.528;2023-07-09T05:02:04;4.20;;;3.47;;
12663;SDS011;6396;58.490;15.528;2023-07-09T05:04:32;4.10;;;3.60;;
12663;SDS011;6396;58.490;15.528;2023-07-09T05:07:00;3.93;;;3.57;;
12663;SDS011;6396;58.490;15.528;2023-07-09T05:09:27;4.20;;;3.80;;
12663;SDS011;6396;58.490;15.528;2023-07-09T05:11:53;4.63;;;3.60;;
12663;SDS011;6396;58.490;15.528;2023-07-09T05:14:20;4.67;;;4.00;;
12663;SDS011;6396;58.490;15.528;2023-07-09T05:16:47;3.93;;;3.53;;
12663;SDS011;6396;58.490;15.528;2023-07-09T05:19:14;4.90;;;4.10;;
12663;SDS011;6396;58.490;15.528;2023-07-09T05:21:40;4.53;;;4.10;;
12663;SDS011;6396;58.490;15.528;2023-07-09T05:24:09;4.43;;;4.03;;
12663;SDS011;6396;58.490;15.528;2023-07-09T05:26:36;3.97;;;3.57;;
12663;SDS011;6396;58.490;15.528;2023-07-09T05:29:03;4.83;;;4.20;;
12663;SDS011;6396;58.490;15.528;2023-07-09T05:31:30;5.47;;;4.10;;
12663;SDS011;6396;58.490;15.528;2023-07-09T05:33:58;4.50;;;4.10;;
12663;SDS011;6396;58.490;15.528;2023-07-09T05:36:25;5.03;;;4.03;;
12663;SDS011;6396;58.490;15.528;2023-07-09T05:38:52;5.23;;;4.40;;
12663;SDS011;6396;58.490;15.528;2023-07-09T05:41:21;4.30;;;3.90;;
12663;SDS011;6396;58.490;15.528;2023-07-09T05:43:49;4.13;;;3.80;;
12663;SDS011;6396;58.490;15.528;2023-07-09T05:46:16;5.57;;;4.23;;
12663;SDS011;6396;58.490;15.528;2023-07-09T05:48:42;4.20;;;3.90;;
12663;SDS011;6396;58.490;15.528;2023-07-09T05:51:09;5.53;;;3.77;;
12663;SDS011;6396;58.490;15.528;2023-07-09T05:53:36;5.13;;;3.87;;
12663;SDS011;6396;58.490;15.528;2023-07-09T05:56:03;4.70;;;4.30;;
12663;SDS011;6396;58.490;15.528;2023-07-09T05:58:31;4.20;;;3.83;;
12663;SDS011;6396;58.490;15.528;2023-07-09T06:00:58;4.47;;;4.07;;
12663;SDS011;6396;58.490;15.528;2023-07-09T06:03:25;6.13;;;4.13;;
12663;SDS011;6396;58.490;15.528;2023-07-09T06:05:53;4.87;;;3.67;;
12663;SDS011;6396;58.490;15.528;2023-07-09T06:08:20;3.90;;;3.37;;
12663;SDS011;6396;58.490;15.528;2023-07-09T06:10:51;4.57;;;3.57;;
12663;SDS011;6396;58.490;15.528;2023-07-09T06:13:18;4.60;;;4.20;;
12663;SDS011;6396;58.490;15.528;2023-07-09T06:15:50;3.87;;;3.57;;
12663;SDS011;6396;58.490;15.528;2023-07-09T06:18:18;4.70;;;3.77;;
12663;SDS011;6396;58.490;15.528;2023-07-09T06:20:47;4.37;;;3.97;;
12663;SDS011;6396;58.490;15.528;2023-07-09T06:23:15;4.77;;;3.90;;
12663;SDS011;6396;58.490;15.528;2023-07-09T06:25:42;5.83;;;3.60;;
12663;SDS011;6396;58.490;15.528;2023-07-09T06:28:23;4.10;;;3.70;;
12663;SDS011;6396;58.490;15.528;2023-07-09T06:36:59;5.93;;;4.13;;
12663;SDS011;6396;58.490;15.528;2023-07-09T06:39:26;4.50;;;3.60;;
12663;SDS011;6396;58.490;15.528;2023-07-09T06:41:55;4.13;;;3.53;;
12663;SDS011;6396;58.490;15.528;2023-07-09T06:44:24;4.33;;;3.93;;
12663;SDS011;6396;58.490;15.528;2023-07-09T06:46:54;4.70;;;3.73;;
12663;SDS011;6396;58.490;15.528;2023-07-09T06:49:21;3.87;;;3.57;;
12663;SDS011;6396;58.490;15.528;2023-07-09T06:51:47;3.60;;;3.30;;
12663;SDS011;6396;58.490;15.528;2023-07-09T06:54:17;3.90;;;3.60;;
12663;SDS011;6396;58.490;15.528;2023-07-09T06:56:46;4.80;;;3.57;;
12663;SDS011;6396;58.490;15.528;2023-07-09T06:59:13;3.90;;;3.57;;
12663;SDS011;6396;58.490;15.528;2023-07-09T07:01:41;4.30;;;3.77;;
12663;SDS011;6396;58.490;15.528;2023-07-09T07:04:08;4.60;;;3.70;;
12663;SDS011;6396;58.490;15.528;2023-07-09T07:06:37;3.60;;;3.30;;
12663;SDS011;6396;58.490;15.528;2023-07-09T07:09:09;5.00;;;3.40;;
12663;SDS011;6396;58.490;15.528;2023-07-09T07:11:37;3.70;;;3.37;;
12663;SDS011;6396;58.490;15.528;2023-07-09T07:14:04;3.50;;;3.20;;
12663;SDS011;6396;58.490;15.528;2023-07-09T07:16:31;5.60;;;3.60;;
12663;SDS011;6396;58.490;15.528;2023-07-09T07:18:58;3.53;;;3.23;;
12663;SDS011;6396;58.490;15.528;2023-07-09T07:21:25;3.60;;;3.30;;
12663;SDS011;6396;58.490;15.528;2023-07-09T07:23:57;3.30;;;3.10;;
12663;SDS011;6396;58.490;15.528;2023-07-09T07:26:24;4.60;;;3.40;;
12663;SDS011;6396;58.490;15.528;2023-07-09T07:28:54;3.47;;;3.17;;
12663;SDS011;6396;58.490;15.528;2023-07-09T07:31:21;4.50;;;3.60;;
12663;SDS011;6396;58.490;15.528;2023-07-09T07:33:48;3.67;;;3.37;;
12663;SDS011;6396;58.490;15.528;2023-07-09T07:36:15;3.53;;;3.10;;
12663;SDS011;6396;58.490;15.528;2023-07-09T07:38:42;3.63;;;3.23;;
12663;SDS011;6396;58.490;15.528;2023-07-09T07:41:09;3.73;;;3.43;;
12663;SDS011;6396;58.490;15.528;2023-07-09T07:43:37;4.17;;;3.77;;
12663;SDS011;6396;58.490;15.528;2023-07-09T07:46:06;3.70;;;3.30;;
12663;SDS011;6396;58.490;15.528;2023-07-09T07:48:33;4.50;;;3.67;;
12663;SDS011;6396;58.490;15.528;2023-07-09T07:51:09;4.27;;;3.87;;
12663;SDS011;6396;58.490;15.528;2023-07-09T07:53:36;4.10;;;3.70;;
12663;SDS011;6396;58.490;15.528;2023-07-09T07:56:06;4.60;;;3.30;;
12663;SDS011;6396;58.490;15.528;2023-07-09T07:58:34;4.03;;;3.47;;
12663;SDS011;6396;58.490;15.528;2023-07-09T08:01:19;4.07;;;3.77;;
12663;SDS011;6396;58.490;15.528;2023-07-09T08:03:46;5.33;;;3.33;;
12663;SDS011;6396;58.490;15.528;2023-07-09T08:06:13;3.67;;;3.13;;
12663;SDS011;6396;58.490;15.528;2023-07-09T08:08:39;4.37;;;3.30;;
12663;SDS011;6396;58.490;15.528;2023-07-09T08:11:06;4.60;;;3.13;;
12663;SDS011;6396;58.490;15.528;2023-07-09T08:13:33;2.80;;;2.60;;
12663;SDS011;6396;58.490;15.528;2023-07-09T08:16:01;4.60;;;3.50;;
12663;SDS011;6396;58.490;15.528;2023-07-09T08:18:30;3.30;;;3.00;;
12663;SDS011;6396;58.490;15.528;2023-07-09T08:20:58;4.25;;;3.30;;
12663;SDS011;6396;58.490;15.528;2023-07-09T08:23:25;3.35;;;3.05;;
12663;SDS011;6396;58.490;15.528;2023-07-09T08:25:52;4.05;;;3.08;;
12663;SDS011;6396;58.490;15.528;2023-07-09T08:28:20;3.50;;;2.90;;
12663;SDS011;6396;58.490;15.528;2023-07-09T08:30:47;3.42;;;3.13;;
12663;SDS011;6396;58.490;15.528;2023-07-09T08:33:14;3.45;;;3.15;;
12663;SDS011;6396;58.490;15.528;2023-07-09T08:35:43;3.55;;;2.67;;
12663;SDS011;6396;58.490;15.528;2023-07-09T08:38:10;3.00;;;2.80;;
12663;SDS011;6396;58.490;15.528;2023-07-09T08:40:38;3.58;;;3.28;;
12663;SDS011;6396;58.490;15.528;2023-07-09T08:43:10;3.15;;;2.95;;
12663;SDS011;6396;58.490;15.528;2023-07-09T08:45:47;2.63;;;2.42;;
12663;SDS011;6396;58.490;15.528;2023-07-09T08:48:22;2.90;;;2.70;;
12663;SDS011;6396;58.490;15.528;2023-07-09T08:50:59;3.30;;;3.10;;
12663;SDS011;6396;58.490;15.528;2023-07-09T08:53:33;3.45;;;2.97;;
12663;SDS011;6396;58.490;15.528;2023-07-09T08:56:03;3.03;;;2.83;;
12663;SDS011;6396;58.490;15.528;2023-07-09T08:58:40;2.78;;;2.58;;
12663;SDS011;6396;58.490;15.528;2023-07-09T09:01:13;2.60;;;2.40;;
12663;SDS011;6396;58.490;15.528;2023-07-09T09:03:46;3.88;;;2.40;;
12663;SDS011;6396;58.490;15.528;2023-07-09T09:06:19;2.67;;;2.47;;
12663;SDS011;6396;58.490;15.528;2023-07-09T09:08:51;2.83;;;2.05;;
12663;SDS011;6396;58.490;15.528;2023-07-09T09:11:26;2.70;;;2.50;;
12663;SDS011;6396;58.490;15.528;2023-07-09T09:14:00;2.60;;;2.40;;
12663;SDS011;6396;58.490;15.528;2023-07-09T09:16:32;3.25;;;2.22;;
12663;SDS011;6396;58.490;15.528;2023-07-09T09:19:02;2.50;;;2.30;;
12663;SDS011;6396;58.490;15.528;2023-07-09T09:21:45;3.30;;;2.38;;
12663;SDS011;6396;58.490;15.528;2023-07-09T09:24:19;2.17;;;2.08;;
12663;SDS011;6396;58.490;15.528;2023-07-09T09:26:53;2.20;;;2.00;;
12663;SDS011;6396;58.490;15.528;2023-07-09T09:29:31;2.70;;;2.50;;
12663;SDS011;6396;58.490;15.528;2023-07-09T09:32:48;2.35;;;2.15;;
12663;SDS011;6396;58.490;15.528;2023-07-09T09:36:00;2.30;;;2.20;;
12663;SDS011;6396;58.490;15.528;2023-07-09T09:43:59;2.20;;;2.03;;
12663;SDS011;6396;58.490;15.528;2023-07-09T09:46:16;2.03;;;1.92;;
12663;SDS011;6396;58.490;15.528;2023-07-09T09:50:01;2.25;;;2.08;;
12663;SDS011;6396;58.490;15.528;2023-07-09T09:52:16;2.40;;;2.20;;
12663;SDS011;6396;58.490;15.528;2023-07-09T09:55:01;2.05;;;1.95;;
12663;SDS011;6396;58.490;15.528;2023-07-09T09:57:53;2.90;;;2.58;;
12663;SDS011;6396;58.490;15.528;2023-07-09T10:04:12;2.00;;;1.80;;
12663;SDS011;6396;58.490;15.528;2023-07-09T10:06:56;2.03;;;1.92;;
12663;SDS011;6396;58.490;15.528;2023-07-09T10:09:50;2.25;;;2.13;;
12663;SDS011;6396;58.490;15.528;2023-07-09T10:15:24;5.03;;;2.38;;
12663;SDS011;6396;58.490;15.528;2023-07-09T10:18:02;2.28;;;2.08;;
12663;SDS011;6396;58.490;15.528;2023-07-09T10:20:37;2.90;;;2.65;;
12663;SDS011;6396;58.490;15.528;2023-07-09T10:23:19;2.42;;;2.22;;
12663;SDS011;6396;58.490;15.528;2023-07-09T10:26:08;2.92;;;2.10;;
12663;SDS011;6396;58.490;15.528;2023-07-09T10:28:47;2.35;;;2.20;;
12663;SDS011;6396;58.490;15.528;2023-07-09T10:31:34;2.30;;;2.15;;
12663;SDS011;6396;58.490;15.528;2023-07-09T10:34:24;2.63;;;2.42;;
12663;SDS011;6396;58.490;15.528;2023-07-09T10:37:14;3.33;;;2.40;;
12663;SDS011;6396;58.490;15.528;2023-07-09T10:40:08;3.05;;;2.20;;
12663;SDS011;6396;58.490;15.528;2023-07-09T10:43:10;2.50;;;2.30;;
12663;SDS011;6396;58.490;15.528;2023-07-09T10:45:44;2.22;;;2.13;;
12663;SDS011;6396;58.490;15.528;2023-07-09T10:48:17;2.78;;;2.47;;
12663;SDS011;6396;58.490;15.528;2023-07-09T10:50:50;6.05;;;2.30;;
12663;SDS011;6396;58.490;15.528;2023-07-09T10:53:32;2.97;;;2.53;;
12663;SDS011;6396;58.490;15.528;2023-07-09T10:56:16;3.13;;;2.35;;
12663;SDS011;6396;58.490;15.528;2023-07-09T10:59:15;2.88;;;2.50;;
12663;SDS011;6396;58.490;15.528;2023-07-09T11:01:49;2.05;;;1.90;;
12663;SDS011;6396;58.490;15.528;2023-07-09T11:04:24;3.75;;;2.65;;
12663;SDS011;6396;58.490;15.528;2023-07-09T11:06:58;2.58;;;2.38;;
12663;SDS011;6396;58.490;15.528;2023-07-09T11:09:31;3.05;;;2.55;;
12663;SDS011;6396;58.490;15.528;2023-07-09T11:12:01;3.08;;;2.42;;
12663;SDS011;6396;58.490;15.528;2023-07-09T11:14:34;2.60;;;2.40;;
12663;SDS011;6396;58.490;15.528;2023-07-09T11:17:25;2.42;;;2.13;;
12663;SDS011;6396;58.490;15.528;2023-07-09T11:20:00;3.05;;;2.25;;
12663;SDS011;6396;58.490;15.528;2023-07-09T11:22:52;2.35;;;2.15;;
12663;SDS011;6396;58.490;15.528;2023-07-09T11:25:46;2.60;;;2.40;;
12663;SDS011;6396;58.490;15.528;2023-07-09T11:28:14;2.53;;;2.33;;
12663;SDS011;6396;58.490;15.528;2023-07-09T11:30:46;2.72;;;2.50;;
12663;SDS011;6396;58.490;15.528;2023-07-09T11:33:18;2.78;;;2.40;;
12663;SDS011;6396;58.490;15.528;2023-07-09T11:35:51;2.58;;;2.38;;
12663;SDS011;6396;58.490;15.528;2023-07-09T11:38:21;2.70;;;2.50;;
12663;SDS011;6396;58.490;15.528;2023-07-09T11:40:49;2.22;;;2.13;;
12663;SDS011;6396;58.490;15.528;2023-07-09T11:43:27;3.40;;;2.70;;
12663;SDS011;6396;58.490;15.528;2023-07-09T11:45:59;6.70;;;3.53;;
12663;SDS011;6396;58.490;15.528;2023-07-09T11:48:35;4.70;;;3.10;;
12663;SDS011;6396;58.490;15.528;2023-07-09T11:51:13;4.83;;;3.37;;
12663;SDS011;6396;58.490;15.528;2023-07-09T11:54:13;4.17;;;3.07;;
12663;SDS011;6396;58.490;15.528;2023-07-09T11:57:02;3.75;;;2.53;;
12663;SDS011;6396;58.490;15.528;2023-07-09T12:00:16;2.80;;;2.60;;
12663;SDS011;6396;58.490;15.528;2023-07-09T12:03:19;4.25;;;2.70;;
12663;SDS011;6396;58.490;15.528;2023-07-09T12:47:09;2.83;;;2.20;;
12663;SDS011;6396;58.490;15.528;2023-07-09T12:49:49;2.38;;;2.17;;
12663;SDS011;6396;58.490;15.528;2023-07-09T12:52:27;2.30;;;2.10;;
12663;SDS011;6396;58.490;15.528;2023-07-09T12:54:58;2.45;;;2.25;;
12663;SDS011;6396;58.490;15.528;2023-07-09T12:57:28;2.35;;;2.17;;
12663;SDS011;6396;58.490;15.528;2023-07-09T13:00:13;2.67;;;2.47;;
12663;SDS011;6396;58.490;15.528;2023-07-09T13:02:57;2.60;;;2.40;;
12663;SDS011;6396;58.490;15.528;2023-07-09T13:05:27;2.90;;;2.58;;
12663;SDS011;6396;58.490;15.528;2023-07-09T13:07:57;2.45;;;2.25;;
12663;SDS011;6396;58.490;15.528;2023-07-09T13:10:32;2.90;;;2.60;;
12663;SDS011;6396;58.490;15.528;2023-07-09T13:13:13;2.40;;;2.20;;
12663;SDS011;6396;58.490;15.528;2023-07-09T13:15:41;2.30;;;2.10;;
12663;SDS011;6396;58.490;15.528;2023-07-09T13:18:16;2.70;;;2.50;;
12663;SDS011;6396;58.490;15.528;2023-07-09T13:20:47;2.37;;;2.17;;
12663;SDS011;6396;58.490;15.528;2023-07-09T13:23:14;2.50;;;2.30;;
12663;SDS011;6396;58.490;15.528;2023-07-09T13:25:43;2.33;;;2.13;;
12663;SDS011;6396;58.490;15.528;2023-07-09T13:30:58;3.10;;;2.77;;
12663;SDS011;6396;58.490;15.528;2023-07-09T13:33:29;4.80;;;2.50;;
12663;SDS011;6396;58.490;15.528;2023-07-09T13:35:56;2.50;;;2.40;;
12663;SDS011;6396;58.490;15.528;2023-07-09T13:38:24;2.47;;;2.27;;
12663;SDS011;6396;58.490;15.528;2023-07-09T13:41:09;2.53;;;2.33;;
12663;SDS011;6396;58.490;15.528;2023-07-09T13:43:50;2.17;;;2.07;;
12663;SDS011;6396;58.490;15.528;2023-07-09T13:46:28;2.40;;;2.20;;
12663;SDS011;6396;58.490;15.528;2023-07-09T13:55:08;2.50;;;2.30;;
12663;SDS011;6396;58.490;15.528;2023-07-09T13:58:01;2.73;;;2.53;;
12663;SDS011;6396;58.490;15.528;2023-07-09T14:01:08;3.10;;;2.60;;
12663;SDS011;6396;58.490;15.528;2023-07-09T14:07:04;2.70;;;2.50;;
12663;SDS011;6396;58.490;15.528;2023-07-09T14:10:06;2.40;;;2.20;;
12663;SDS011;6396;58.490;15.528;2023-07-09T14:12:58;2.63;;;2.43;;
12663;SDS011;6396;58.490;15.528;2023-07-09T14:18:53;10.30;;;4.63;;
12663;SDS011;6396;58.490;15.528;2023-07-09T14:21:20;8.13;;;4.80;;
12663;SDS011;6396;58.490;15.528;2023-07-09T14:23:51;10.03;;;4.47;;
12663;SDS011;6396;58.490;15.528;2023-07-09T14:26:20;5.20;;;3.50;;
12663;SDS011;6396;58.490;15.528;2023-07-09T14:28:47;6.50;;;3.73;;
12663;SDS011;6396;58.490;15.528;2023-07-09T14:31:26;4.17;;;3.00;;
12663;SDS011;6396;58.490;15.528;2023-07-09T14:36:49;3.13;;;2.77;;
12663;SDS011;6396;58.490;15.528;2023-07-09T14:39:19;3.23;;;2.93;;
12663;SDS011;6396;58.490;15.528;2023-07-09T14:41:50;2.97;;;2.70;;
12663;SDS011;6396;58.490;15.528;2023-07-09T14:44:22;2.90;;;2.70;;
12663;SDS011;6396;58.490;15.528;2023-07-09T14:46:50;4.40;;;2.47;;
12663;SDS011;6396;58.490;15.528;2023-07-09T14:49:21;3.33;;;3.00;;
12663;SDS011;6396;58.490;15.528;2023-07-09T14:51:53;3.03;;;2.73;;
12663;SDS011;6396;58.490;15.528;2023-07-09T14:54:23;2.50;;;2.30;;
12663;SDS011;6396;58.490;15.528;2023-07-09T14:56:57;2.93;;;2.63;;
12663;SDS011;6396;58.490;15.528;2023-07-09T14:59:25;2.60;;;2.40;;
12663;SDS011;6396;58.490;15.528;2023-07-09T15:01:52;3.13;;;2.83;;
12663;SDS011;6396;58.490;15.528;2023-07-09T15:04:26;2.87;;;2.63;;
12663;SDS011;6396;58.490;15.528;2023-07-09T15:06:55;2.87;;;2.67;;
12663;SDS011;6396;58.490;15.528;2023-07-09T15:09:23;3.53;;;2.80;;
12663;SDS011;6396;58.490;15.528;2023-07-09T15:11:54;5.10;;;2.80;;
12663;SDS011;6396;58.490;15.528;2023-07-09T15:14:26;2.97;;;2.77;;
12663;SDS011;6396;58.490;15.528;2023-07-09T15:16:54;3.30;;;2.60;;
12663;SDS011;6396;58.490;15.528;2023-07-09T15:19:22;4.00;;;2.87;;
12663;SDS011;6396;58.490;15.528;2023-07-09T15:21:49;3.53;;;2.80;;
12663;SDS011;6396;58.490;15.528;2023-07-09T15:24:19;2.87;;;2.67;;
12663;SDS011;6396;58.490;15.528;2023-07-09T15:26:49;2.77;;;2.57;;
12663;SDS011;6396;58.490;15.528;2023-07-09T15:29:19;3.17;;;2.97;;
12663;SDS011;6396;58.490;15.528;2023-07-09T15:31:47;3.90;;;2.90;;
12663;SDS011;6396;58.490;15.528;2023-07-09T15:34:14;3.70;;;2.63;;
12663;SDS011;6396;58.490;15.528;2023-07-09T15:36:43;2.83;;;2.63;;
12663;SDS011;6396;58.490;15.528;2023-07-09T15:39:13;2.80;;;2.60;;
12663;SDS011;6396;58.490;15.528;2023-07-09T15:41:39;3.10;;;2.80;;
12663;SDS011;6396;58.490;15.528;2023-07-09T15:44:08;2.90;;;2.70;;
12663;SDS011;6396;58.490;15.528;2023-07-09T15:46:37;2.47;;;2.27;;
12663;SDS011;6396;58.490;15.528;2023-07-09T15:49:09;3.30;;;2.50;;
12663;SDS011;6396;58.490;15.528;2023-07-09T15:51:37;2.70;;;2.50;;
12663;SDS011;6396;58.490;15.528;2023-07-09T15:54:07;2.43;;;2.23;;
12663;SDS011;6396;58.490;15.528;2023-07-09T15:56:40;2.53;;;2.33;;
12663;SDS011;6396;58.490;15.528;2023-07-09T15:59:07;2.53;;;2.20;;
12663;SDS011;6396;58.490;15.528;2023-07-09T16:01:50;2.83;;;2.40;;
12663;SDS011;6396;58.490;15.528;2023-07-09T16:04:18;3.40;;;2.50;;
12663;SDS011;6396;58.490;15.528;2023-07-09T16:06:46;2.43;;;2.20;;
12663;SDS011;6396;58.490;15.528;2023-07-09T16:09:13;3.73;;;2.57;;
12663;SDS011;6396;58.490;15.528;2023-07-09T16:11:40;3.20;;;2.43;;
12663;SDS011;6396;58.490;15.528;2023-07-09T16:14:12;2.70;;;2.50;;
12663;SDS011;6396;58.490;15.528;2023-07-09T16:16:44;2.00;;;1.90;;
12663;SDS011;6396;58.490;15.528;2023-07-09T16:19:15;2.30;;;2.10;;
12663;SDS011;6396;58.490;15.528;2023-07-09T16:21:45;2.80;;;2.60;;
12663;SDS011;6396;58.490;15.528;2023-07-09T16:24:15;2.90;;;2.60;;
12663;SDS011;6396;58.490;15.528;2023-07-09T16:26:57;2.73;;;2.53;;
12663;SDS011;6396;58.490;15.528;2023-07-09T16:29:25;2.83;;;2.47;;
12663;SDS011;6396;58.490;15.528;2023-07-09T16:31:55;2.93;;;2.70;;
12663;SDS011;6396;58.490;15.528;2023-07-09T16:34:23;3.27;;;2.43;;
12663;SDS011;6396;58.490;15.528;2023-07-09T16:36:52;2.57;;;2.37;;